Time;durP1;ratioP1;P1;durP2;ratioP2;P2;SDS_P1;SDS_P2;PMS_P1;PMS_P2;Temp;Humidity;BMP_temperature;BMP_pressure;BME280_temperature;BME280_humidity;BME280_pressure;Samples;Min_cycle;Max_cycle;Signal;HPM_P1;HPM_P2
2024/04/22 00:01:08;;;;;;;4.25;2.60;;;4.80;99.90;;;;;;7368618;19;20019;-64
2024/04/22 00:03:34;;;;;;;4.10;2.40;;;4.80;99.90;;;;;;7373975;19;20015;-64
2024/04/22 00:06:00;;;;;;;3.45;2.42;;;4.80;99.90;;;;;;7373747;19;20022;-64
2024/04/22 00:08:27;;;;;;;5.32;2.60;;;4.80;99.90;;;;;;7374886;19;20487;-63
2024/04/22 00:11:00;;;;;;;4.43;2.25;;;4.80;99.90;;;;;;7369300;19;20018;-63
2024/04/22 00:13:30;;;;;;;5.10;2.45;;;4.90;99.90;;;;;;7374280;19;20579;-63
2024/04/22 00:15:57;;;;;;;4.90;2.40;;;4.90;99.90;;;;;;7371061;19;20107;-62
2024/04/22 00:18:23;;;;;;;3.85;2.60;;;4.90;99.90;;;;;;7373453;19;20119;-63
2024/04/22 00:20:50;;;;;;;3.58;2.50;;;4.90;99.90;;;;;;7365607;19;20029;-63
2024/04/22 00:23:17;;;;;;;3.53;2.13;;;4.90;99.90;;;;;;7367126;19;20030;-63
2024/04/22 00:25:43;;;;;;;4.55;2.10;;;4.90;99.90;;;;;;7371739;19;20380;-63
2024/04/22 00:28:10;;;;;;;3.97;2.28;;;4.90;99.90;;;;;;7373521;19;20026;-63
2024/04/22 00:30:36;;;;;;;3.92;2.40;;;5.00;99.90;;;;;;7375894;19;20035;-64
2024/04/22 00:33:02;;;;;;;3.55;2.58;;;5.10;99.90;;;;;;7379099;19;20022;-64
2024/04/22 00:35:28;;;;;;;3.83;2.40;;;5.00;99.90;;;;;;7379557;19;20014;-63
2024/04/22 00:37:58;;;;;;;3.78;2.25;;;5.00;99.90;;;;;;7378584;19;20026;-64
2024/04/22 00:40:24;;;;;;;4.95;2.50;;;5.00;99.90;;;;;;7378052;19;20592;-63
2024/04/22 00:42:50;;;;;;;5.40;2.80;;;5.10;99.90;;;;;;7378633;19;20014;-63
2024/04/22 00:45:16;;;;;;;6.25;2.83;;;5.10;43.20;;;;;;7377854;19;20085;-63
2024/04/22 00:47:42;;;;;;;4.07;2.58;;;5.10;1.00;;;;;;7377194;19;20025;-63
2024/04/22 00:50:13;;;;;;;5.72;2.60;;;5.10;1.00;;;;;;7376531;19;20048;-63
2024/04/22 00:52:41;;;;;;;4.68;2.92;;;5.10;1.00;;;;;;7380737;19;20031;-64
2024/04/22 00:55:08;;;;;;;4.93;3.00;;;5.10;1.00;;;;;;7375954;19;20057;-64
2024/04/22 00:57:40;;;;;;;7.10;3.30;;;5.10;1.00;;;;;;7378146;19;20580;-64
2024/04/22 01:00:09;;;;;;;4.60;3.10;;;5.10;1.00;;;;;;7372588;19;20075;-64
2024/04/22 01:02:37;;;;;;;6.47;3.10;;;5.10;1.00;;;;;;7375682;19;20050;-64
2024/04/22 01:05:04;;;;;;;4.72;3.42;;;5.20;1.00;;;;;;7377761;19;20018;-64
2024/04/22 01:07:30;;;;;;;4.90;3.30;;;5.10;17.30;;;;;;7379851;19;20023;-64
2024/04/22 01:09:57;;;;;;;3.88;2.63;;;5.10;5.80;;;;;;7373885;19;20022;-65
2024/04/22 01:12:23;;;;;;;4.15;3.05;;;5.20;4.60;;;;;;7378703;19;20018;-65
2024/04/22 01:14:49;;;;;;;4.80;3.20;;;5.20;12.80;;;;;;7378620;19;20375;-64
2024/04/22 01:17:15;;;;;;;5.28;3.15;;;5.20;24.70;;;;;;7379813;19;20050;-64
2024/04/22 01:19:42;;;;;;;5.25;2.97;;;5.20;1.00;;;;;;7377425;19;20512;-63
2024/04/22 01:22:08;;;;;;;5.00;2.85;;;5.20;33.00;;;;;;7374759;19;20018;-64
2024/04/22 01:24:34;;;;;;;7.57;3.70;;;5.10;42.30;;;;;;7379398;19;20041;-63
2024/04/22 01:27:05;;;;;;;5.65;3.85;;;5.20;34.50;;;;;;7377585;19;20025;-63
2024/04/22 01:29:31;;;;;;;4.47;3.22;;;5.10;65.20;;;;;;7379805;19;20371;-63
2024/04/22 01:31:57;;;;;;;6.43;3.80;;;5.10;92.90;;;;;;7376298;19;20039;-63
2024/04/22 01:34:23;;;;;;;5.03;3.10;;;5.10;99.90;;;;;;7379175;19;20676;-63
2024/04/22 01:36:50;;;;;;;3.97;2.78;;;5.00;99.90;;;;;;7375408;19;20033;-63
2024/04/22 01:39:16;;;;;;;4.40;3.20;;;5.10;99.90;;;;;;7375876;19;20042;-63
2024/04/22 01:41:43;;;;;;;8.00;3.58;;;4.90;99.90;;;;;;7379020;19;20027;-63
2024/04/22 01:44:12;;;;;;;4.07;2.80;;;4.90;99.90;;;;;;7374853;19;20026;-63
2024/04/22 01:46:38;;;;;;;4.63;3.22;;;4.80;99.90;;;;;;7375322;19;20048;-63
2024/04/22 01:49:04;;;;;;;5.55;3.53;;;4.70;99.90;;;;;;7376521;19;20094;-63
2024/04/22 01:51:30;;;;;;;5.00;3.17;;;4.70;99.90;;;;;;7376947;19;20024;-63
2024/04/22 01:53:56;;;;;;;5.65;3.10;;;4.70;99.90;;;;;;7374197;19;20377;-64
2024/04/22 01:56:22;;;;;;;4.05;3.10;;;4.60;99.90;;;;;;7379299;19;20046;-64
2024/04/22 01:58:51;;;;;;;4.75;3.22;;;4.60;99.90;;;;;;7375728;19;20598;-64
2024/04/22 02:01:17;;;;;;;6.40;3.40;;;4.50;99.90;;;;;;7372132;19;20498;-64
2024/04/22 02:03:43;;;;;;;5.18;3.13;;;4.50;99.90;;;;;;7374658;19;20063;-64
2024/04/22 02:06:10;;;;;;;6.25;3.30;;;4.50;99.90;;;;;;7377707;19;20034;-64
2024/04/22 02:08:37;;;;;;;5.18;3.38;;;4.50;99.90;;;;;;7374869;19;20859;-64
2024/04/22 02:11:03;;;;;;;6.53;3.78;;;4.40;99.90;;;;;;7376768;19;20018;-64
2024/04/22 02:13:29;;;;;;;4.80;3.45;;;4.40;99.90;;;;;;7377021;19;20626;-64
2024/04/22 02:15:56;;;;;;;7.60;4.22;;;4.40;99.90;;;;;;7374660;19;20763;-64
2024/04/22 02:18:22;;;;;;;4.93;3.85;;;4.40;99.90;;;;;;7374471;19;20029;-64
2024/04/22 02:20:50;;;;;;;4.10;3.30;;;4.40;99.90;;;;;;7376028;19;20098;-64
2024/04/22 02:23:17;;;;;;;5.95;3.13;;;4.40;99.90;;;;;;7375015;19;20015;-64
2024/04/22 02:25:44;;;;;;;5.18;3.50;;;4.40;99.90;;;;;;7374474;19;20019;-64
2024/04/22 02:28:13;;;;;;;5.28;3.10;;;4.30;99.90;;;;;;7373940;19;20014;-64
2024/04/22 02:30:40;;;;;;;4.78;3.42;;;4.30;1.00;;;;;;7368626;19;20014;-64
2024/04/22 02:33:08;;;;;;;6.28;3.60;;;4.30;1.00;;;;;;7373287;19;20025;-64
2024/04/22 02:35:35;;;;;;;7.60;3.72;;;4.30;1.00;;;;;;7376063;19;20038;-65
2024/04/22 02:38:02;;;;;;;5.70;3.50;;;4.30;1.00;;;;;;7373661;19;20761;-64
2024/04/22 02:40:28;;;;;;;5.97;3.63;;;4.20;1.00;;;;;;7375168;19;20048;-63
2024/04/22 02:42:54;;;;;;;5.18;3.63;;;4.10;1.00;;;;;;7375324;19;20014;-64
2024/04/22 02:45:21;;;;;;;6.25;3.60;;;4.10;1.00;;;;;;7375471;19;20026;-64
2024/04/22 02:47:47;;;;;;;6.35;3.40;;;4.20;1.00;;;;;;7375838;19;20127;-64
2024/04/22 02:50:13;;;;;;;5.57;3.75;;;4.10;1.00;;;;;;7373138;19;20102;-63
2024/04/22 02:52:40;;;;;;;6.25;4.03;;;4.20;1.00;;;;;;7373317;19;20078;-64
2024/04/22 02:55:06;;;;;;;8.07;3.67;;;4.10;1.00;;;;;;7373109;19;20032;-64
2024/04/22 02:57:33;;;;;;;5.80;3.83;;;4.10;1.00;;;;;;7374272;19;20025;-64
2024/04/22 03:00:00;;;;;;;6.50;3.45;;;4.10;1.00;;;;;;7374277;19;20097;-64
2024/04/22 03:02:26;;;;;;;6.25;4.30;;;4.10;1.00;;;;;;7373787;19;20482;-64
2024/04/22 03:04:52;;;;;;;5.72;4.03;;;4.10;1.00;;;;;;7372699;19;20097;-64
2024/04/22 03:07:18;;;;;;;5.93;3.92;;;4.00;1.00;;;;;;7374689;19;20019;-64
2024/04/22 03:09:45;;;;;;;6.28;4.22;;;4.00;1.00;;;;;;7373741;19;20021;-64
2024/04/22 03:12:32;;;;;;;7.07;4.10;;;4.00;1.00;;;;;;7375795;19;20022;-64
2024/04/22 03:14:59;;;;;;;6.15;4.00;;;3.90;1.00;;;;;;7373803;19;20757;-63
2024/04/22 03:17:26;;;;;;;6.20;4.20;;;3.90;1.00;;;;;;7370911;19;20041;-64
2024/04/22 03:19:52;;;;;;;5.43;4.13;;;3.80;1.00;;;;;;7375207;19;20077;-65
2024/04/22 03:22:23;;;;;;;6.33;4.23;;;3.70;1.00;;;;;;7372653;19;20021;-64
2024/04/22 03:24:49;;;;;;;8.82;4.25;;;3.60;1.00;;;;;;7374004;19;20289;-64
2024/04/22 03:27:16;;;;;;;6.00;4.28;;;3.70;1.00;;;;;;7371066;19;20025;-63
2024/04/22 03:29:42;;;;;;;6.70;4.13;;;3.70;1.00;;;;;;7376415;19;20018;-64
2024/04/22 03:32:08;;;;;;;6.43;4.60;;;3.60;1.00;;;;;;7372561;19;20018;-64
2024/04/22 03:34:35;;;;;;;6.57;4.18;;;3.60;1.00;;;;;;7375995;19;20026;-64
2024/04/22 03:37:21;;;;;;;5.22;4.35;;;3.60;1.00;;;;;;7372396;19;20022;-64
2024/04/22 03:39:47;;;;;;;7.53;4.57;;;3.60;1.00;;;;;;7374657;19;20018;-64
2024/04/22 03:42:13;;;;;;;8.70;4.60;;;3.60;9.20;;;;;;7370766;19;20046;-63
2024/04/22 03:44:40;;;;;;;7.47;4.65;;;3.50;31.00;;;;;;7374445;19;20086;-64
2024/04/22 03:50:10;;;;;;;5.60;4.15;;;3.50;94.30;;;;;;7371813;19;20018;-64
2024/04/22 03:52:37;;;;;;;6.03;4.30;;;3.60;83.80;;;;;;7370893;19;20019;-63
2024/04/22 03:55:21;;;;;;;6.45;4.57;;;3.50;69.40;;;;;;7371398;19;20448;-63
2024/04/22 03:57:47;;;;;;;5.88;4.30;;;3.50;85.00;;;;;;7374789;19;20026;-65
2024/04/22 04:00:36;;;;;;;7.32;4.40;;;3.60;99.90;;;;;;7374259;19;20376;-64
2024/04/22 04:03:02;;;;;;;7.18;4.10;;;3.50;99.90;;;;;;7376479;19;20019;-64
2024/04/22 04:05:29;;;;;;;7.18;4.05;;;3.50;99.90;;;;;;7381553;19;20030;-64
2024/04/22 04:08:00;;;;;;;7.93;4.78;;;3.50;99.90;;;;;;7377738;19;20078;-64
2024/04/22 04:10:26;;;;;;;6.68;4.70;;;3.50;99.90;;;;;;7378758;19;20582;-64
2024/04/22 04:12:52;;;;;;;7.35;4.65;;;3.40;99.90;;;;;;7375799;19;20034;-64
2024/04/22 04:15:18;;;;;;;6.18;4.43;;;3.40;99.90;;;;;;7375717;19;20028;-63
2024/04/22 04:18:05;;;;;;;6.78;4.63;;;3.40;99.90;;;;;;7374197;19;20692;-64
2024/04/22 04:20:31;;;;;;;7.28;4.63;;;3.40;99.90;;;;;;7381041;19;20014;-63
2024/04/22 04:22:57;;;;;;;7.85;4.80;;;3.40;99.90;;;;;;7378281;19;20030;-64
2024/04/22 04:25:23;;;;;;;7.32;4.85;;;3.40;99.90;;;;;;7381163;19;20019;-64
2024/04/22 04:27:49;;;;;;;5.63;4.35;;;3.40;99.90;;;;;;7378233;19;20050;-63
2024/04/22 04:30:15;;;;;;;6.82;4.80;;;3.40;99.90;;;;;;7380293;19;20015;-64
2024/04/22 04:32:41;;;;;;;6.38;5.00;;;3.50;99.90;;;;;;7380471;19;20010;-64
2024/04/22 04:35:08;;;;;;;9.45;4.75;;;3.50;99.90;;;;;;7380685;19;20035;-64
2024/04/22 04:37:35;;;;;;;6.38;4.90;;;3.50;99.90;;;;;;7381561;19;20033;-63
2024/04/22 04:40:01;;;;;;;9.88;5.68;;;3.60;99.90;;;;;;7381244;19;20015;-64
2024/04/22 04:42:28;;;;;;;8.13;4.95;;;3.60;99.90;;;;;;7379800;19;20010;-64
2024/04/22 04:44:55;;;;;;;7.05;5.30;;;3.60;99.90;;;;;;7379305;19;20015;-64
2024/04/22 04:47:21;;;;;;;6.50;5.05;;;3.60;99.90;;;;;;7378062;19;20601;-65
2024/04/22 04:49:47;;;;;;;8.77;5.85;;;3.70;99.90;;;;;;7383077;19;20022;-64
2024/04/22 04:52:14;;;;;;;6.35;4.53;;;3.80;99.90;;;;;;7378272;19;20014;-63
2024/04/22 04:54:40;;;;;;;7.70;5.28;;;3.80;99.90;;;;;;7378713;19;20033;-63
2024/04/22 04:57:06;;;;;;;9.55;5.35;;;3.90;99.90;;;;;;7376039;19;20498;-64
2024/04/22 04:59:32;;;;;;;6.53;5.35;;;3.90;99.90;;;;;;7380312;19;20023;-64
2024/04/22 05:01:59;;;;;;;7.78;5.15;;;4.00;99.90;;;;;;7376003;19;20014;-64
2024/04/22 05:04:25;;;;;;;6.80;4.15;;;4.10;99.90;;;;;;7376797;19;20022;-64
2024/04/22 05:06:51;;;;;;;6.63;4.00;;;4.20;99.90;;;;;;7378779;19;20394;-64
2024/04/22 05:09:17;;;;;;;6.88;3.70;;;4.20;97.50;;;;;;7377018;19;20018;-64
2024/04/22 05:11:44;;;;;;;6.40;4.22;;;4.30;67.10;;;;;;7375461;19;20485;-64
2024/04/22 05:14:10;;;;;;;6.03;3.78;;;4.40;28.20;;;;;;7379699;19;20024;-64
2024/04/22 05:16:37;;;;;;;6.13;3.83;;;4.40;1.00;;;;;;7378917;19;20188;-64
2024/04/22 05:19:03;;;;;;;4.72;3.60;;;4.40;1.00;;;;;;7381249;19;20018;-64
2024/04/22 05:21:29;;;;;;;4.50;3.42;;;4.50;1.00;;;;;;7378607;19;20588;-64
2024/04/22 05:24:18;;;;;;;5.75;3.38;;;4.60;1.00;;;;;;7378871;19;20517;-64
2024/04/22 05:26:44;;;;;;;4.82;3.53;;;4.70;1.00;;;;;;7381014;19;20015;-64
2024/04/22 05:29:10;;;;;;;5.60;3.13;;;4.80;1.00;;;;;;7377499;19;20034;-64
2024/04/22 05:31:39;;;;;;;4.88;3.42;;;4.80;1.00;;;;;;7378637;19;20017;-63
2024/04/22 05:36:53;;;;;;;4.95;3.13;;;5.00;1.00;;;;;;7380501;19;20779;-64
2024/04/22 05:39:19;;;;;;;4.93;3.55;;;5.00;1.00;;;;;;7377141;19;20037;-64
2024/04/22 05:41:45;;;;;;;6.15;3.58;;;5.10;1.00;;;;;;7375367;19;20027;-64
2024/04/22 05:44:12;;;;;;;6.38;3.22;;;5.10;1.00;;;;;;7377069;19;20019;-64
2024/04/22 05:46:39;;;;;;;4.90;3.35;;;5.10;1.00;;;;;;7379368;19;20010;-64
2024/04/22 05:49:08;;;;;;;6.45;3.78;;;5.20;1.00;;;;;;7378804;19;20081;-64
2024/04/22 05:51:34;;;;;;;5.10;3.10;;;5.30;1.00;;;;;;7378729;19;20044;-64
2024/04/22 05:54:02;;;;;;;6.82;3.60;;;5.30;1.00;;;;;;7376071;19;20014;-65
2024/04/22 05:56:28;;;;;;;5.57;3.25;;;5.40;99.90;;;;;;7378832;19;20014;-68
2024/04/22 05:58:54;;;;;;;6.47;3.22;;;5.40;99.90;;;;;;7378068;19;20025;-64
2024/04/22 06:01:20;;;;;;;4.38;3.13;;;5.50;99.90;;;;;;7376022;19;20384;-64
2024/04/22 06:03:47;;;;;;;5.60;3.10;;;5.50;99.90;;;;;;7375765;19;20027;-64
2024/04/22 06:06:14;;;;;;;6.53;3.65;;;5.60;99.90;;;;;;7375095;19;20014;-64
2024/04/22 06:08:40;;;;;;;5.68;2.92;;;5.70;99.90;;;;;;7378060;19;20582;-64
2024/04/22 06:11:06;;;;;;;3.63;2.63;;;5.80;99.90;;;;;;7377043;19;20774;-64
2024/04/22 06:13:32;;;;;;;4.20;3.33;;;5.80;99.90;;;;;;7377095;19;20022;-63
2024/04/22 06:15:58;;;;;;;6.40;3.38;;;5.90;99.90;;;;;;7375235;19;20808;-63
2024/04/22 06:18:24;;;;;;;5.18;3.10;;;6.00;99.90;;;;;;7377326;19;20110;-62
2024/04/22 06:20:51;;;;;;;9.18;3.55;;;6.00;99.90;;;;;;7378283;19;20052;-63
2024/04/22 06:23:17;;;;;;;6.10;3.28;;;6.10;99.90;;;;;;7373959;19;20011;-62
2024/04/22 06:25:43;;;;;;;4.30;3.10;;;6.20;99.90;;;;;;7376681;19;20367;-63
2024/04/22 06:28:10;;;;;;;5.47;2.35;;;6.30;99.90;;;;;;7376714;19;20105;-63
2024/04/22 06:30:36;;;;;;;4.63;2.80;;;6.30;99.90;;;;;;7373934;19;20058;-63
2024/04/22 06:33:03;;;;;;;4.75;3.00;;;6.40;99.90;;;;;;7375052;19;20642;-63
2024/04/22 06:35:29;;;;;;;4.55;2.70;;;6.50;99.90;;;;;;7372639;19;20097;-63
2024/04/22 06:37:55;;;;;;;4.32;2.78;;;6.60;99.90;;;;;;7377881;19;20824;-63
2024/04/22 06:40:21;;;;;;;4.43;2.70;;;6.60;32.80;;;;;;7375950;19;20538;-63
2024/04/22 06:42:48;;;;;;;6.13;3.50;;;6.60;1.00;;;;;;7377343;19;20109;-61
2024/04/22 06:45:15;;;;;;;4.40;2.63;;;6.70;21.20;;;;;;7373159;19;20082;-60
2024/04/22 06:47:41;;;;;;;5.85;2.90;;;6.80;7.80;;;;;;7372977;19;20014;-62
2024/04/22 06:50:07;;;;;;;5.85;2.83;;;6.90;1.00;;;;;;7376033;19;20018;-62
2024/04/22 06:52:33;;;;;;;4.50;2.70;;;6.90;1.00;;;;;;7374606;19;20432;-62
2024/04/22 06:55:00;;;;;;;6.03;3.08;;;7.00;1.00;;;;;;7372367;19;20102;-61
2024/04/22 06:57:26;;;;;;;3.90;2.20;;;7.00;1.00;;;;;;7373656;19;20015;-61
2024/04/22 06:59:52;;;;;;;8.27;3.45;;;7.00;1.00;;;;;;7374045;19;20034;-62
2024/04/22 07:02:18;;;;;;;5.32;2.60;;;7.10;1.00;;;;;;7372537;19;20107;-61
2024/04/22 07:04:48;;;;;;;5.75;2.67;;;7.20;1.00;;;;;;7376975;19;20018;-61
2024/04/22 07:07:14;;;;;;;6.18;3.78;;;7.10;99.90;;;;;;7373390;19;20481;-61
2024/04/22 07:09:40;;;;;;;5.85;3.85;;;7.30;1.00;;;;;;7378245;19;20089;-64
2024/04/22 07:12:06;;;;;;;5.22;2.83;;;7.40;1.00;;;;;;7374644;19;20984;-61
2024/04/22 07:14:32;;;;;;;6.25;3.72;;;7.40;1.00;;;;;;7376091;19;20018;-60
2024/04/22 07:16:59;;;;;;;6.93;3.50;;;7.50;1.00;;;;;;7374360;19;20625;-61
2024/04/22 07:19:25;;;;;;;5.57;3.63;;;7.60;99.90;;;;;;7377567;19;20014;-62
2024/04/22 07:21:51;;;;;;;5.28;3.50;;;7.70;99.90;;;;;;7373560;19;20023;-61
2024/04/22 07:24:18;;;;;;;4.70;2.83;;;7.80;99.90;;;;;;7373079;19;20358;-61
2024/04/22 07:26:44;;;;;;;6.38;3.42;;;7.90;99.90;;;;;;7374719;19;20043;-64
2024/04/22 07:29:10;;;;;;;5.97;3.15;;;8.10;99.90;;;;;;7373364;19;20018;-62
2024/04/22 07:31:37;;;;;;;8.32;2.90;;;8.40;99.90;;;;;;7375245;19;20025;-63
2024/04/22 07:34:03;;;;;;;5.47;2.97;;;8.70;99.90;;;;;;7374309;19;20018;-63
2024/04/22 07:36:45;;;;;;;4.97;3.30;;;8.80;99.90;;;;;;7372440;19;20030;-63
2024/04/22 07:39:14;;;;;;;7.05;4.18;;;9.00;1.00;;;;;;7376148;19;20006;-62
2024/04/22 07:41:40;;;;;;;5.95;2.90;;;9.20;1.90;;;;;;7373664;19;20060;-63
2024/04/22 07:44:10;;;;;;;3.55;2.65;;;9.30;1.00;;;;;;7375968;19;20018;-62
2024/04/22 07:46:36;;;;;;;5.72;3.30;;;9.20;99.90;;;;;;7370444;19;20022;-61
2024/04/22 07:49:03;;;;;;;8.93;5.07;;;9.30;1.00;;;;;;7372084;19;20490;-61
2024/04/22 07:51:29;;;;;;;9.13;6.40;;;9.30;99.90;;;;;;7366511;19;20035;-64
2024/04/22 07:53:57;;;;;;;14.05;9.88;;;9.50;99.90;;;;;;7371618;19;20023;-63
2024/04/22 07:56:23;;;;;;;25.60;20.83;;;9.60;99.90;;;;;;7371603;19;20038;-62
2024/04/22 07:58:50;;;;;;;13.02;8.95;;;9.70;99.90;;;;;;7372251;19;20093;-62
2024/04/22 08:01:16;;;;;;;11.25;6.28;;;9.70;99.90;;;;;;7373778;19;20462;-63
2024/04/22 08:03:43;;;;;;;3.95;2.55;;;9.90;99.90;;;;;;7373394;19;20018;-62
2024/04/22 08:06:17;;;;;;;10.73;6.88;;;9.90;99.90;;;;;;7371869;19;20015;-62
2024/04/22 08:08:43;;;;;;;7.30;5.22;;;10.20;99.90;;;;;;7372889;19;20025;-63
2024/04/22 08:11:10;;;;;;;5.15;3.95;;;10.70;99.90;;;;;;7372510;19;20086;-64
2024/04/22 08:13:36;;;;;;;6.43;3.60;;;11.10;99.90;;;;;;7373253;19;20790;-67
2024/04/22 08:16:03;;;;;;;11.43;7.50;;;11.40;99.90;;;;;;7372218;19;20022;-67
2024/04/22 08:18:30;;;;;;;14.02;9.45;;;11.70;99.90;;;;;;7374504;19;20082;-62
2024/04/22 08:20:56;;;;;;;10.27;7.38;;;11.80;99.90;;;;;;7373881;19;20030;-62
2024/04/22 08:23:23;;;;;;;7.32;5.22;;;12.10;83.20;;;;;;7372780;19;20498;-62
2024/04/22 08:25:50;;;;;;;7.47;4.03;;;12.30;52.10;;;;;;7373064;19;20010;-63
2024/04/22 08:28:16;;;;;;;9.48;5.10;;;12.70;45.90;;;;;;7374534;19;20022;-62
2024/04/22 08:30:42;;;;;;;5.03;2.97;;;12.90;28.00;;;;;;7373550;19;20018;-63
2024/04/22 08:33:08;;;;;;;9.20;7.15;;;12.80;28.20;;;;;;7369440;19;20022;-62
2024/04/22 08:35:46;;;;;;;5.40;2.58;;;13.30;32.90;;;;;;7371080;19;20098;-63
2024/04/22 08:38:12;;;;;;;5.30;3.38;;;13.30;9.40;;;;;;7372101;19;20015;-62
2024/04/22 08:40:42;;;;;;;9.18;5.65;;;13.40;5.90;;;;;;7371723;19;20025;-63
2024/04/22 08:43:09;;;;;;;3.08;2.28;;;14.10;1.00;;;;;;7372825;19;20803;-63
2024/04/22 08:45:36;;;;;;;7.43;4.35;;;14.50;1.00;;;;;;7371772;19;20016;-62
2024/04/22 08:48:03;;;;;;;5.78;3.38;;;14.40;1.00;;;;;;7380218;19;20093;-64
2024/04/22 08:50:29;;;;;;;11.00;7.80;;;14.70;1.00;;;;;;7380288;19;20014;-62
2024/04/22 08:52:55;;;;;;;11.05;9.48;;;15.30;1.00;;;;;;7377806;19;20022;-63
2024/04/22 08:55:22;;;;;;;10.50;5.97;;;14.60;1.00;;;;;;7378245;19;20018;-64
2024/04/22 08:57:49;;;;;;;10.90;7.20;;;13.50;1.00;;;;;;7377994;19;20018;-63
2024/04/22 09:00:15;;;;;;;6.32;2.75;;;12.70;1.00;;;;;;7379521;19;20038;-63
2024/04/22 09:02:42;;;;;;;11.10;8.57;;;12.30;1.00;;;;;;7377543;19;20424;-63
2024/04/22 09:05:08;;;;;;;4.78;3.47;;;11.70;1.00;;;;;;7379379;19;20403;-63
2024/04/22 09:07:35;;;;;;;10.45;7.85;;;11.20;1.00;;;;;;7377454;19;20022;-63
2024/04/22 09:10:01;;;;;;;11.65;8.05;;;10.80;1.00;;;;;;7379510;19;20022;-63
2024/04/22 09:12:27;;;;;;;8.23;5.88;;;10.60;1.00;;;;;;7380316;19;20014;-63
2024/04/22 09:15:03;;;;;;;11.00;7.88;;;10.50;1.00;;;;;;7379408;19;20483;-63
2024/04/22 09:17:30;;;;;;;6.97;2.95;;;10.70;12.40;;;;;;7377695;19;20018;-64
2024/04/22 09:19:56;;;;;;;6.93;5.53;;;11.60;1.00;;;;;;7380074;19;20052;-64
2024/04/22 09:22:22;;;;;;;5.88;3.88;;;12.20;1.00;;;;;;7376088;19;20014;-64
2024/04/22 09:24:49;;;;;;;7.45;5.20;;;12.30;1.00;;;;;;7377323;19;20022;-65
2024/04/22 09:27:16;;;;;;;5.63;3.30;;;12.10;1.00;;;;;;7378031;19;20022;-64
2024/04/22 09:29:43;;;;;;;13.82;9.80;;;12.20;1.00;;;;;;7379135;19;20053;-63
2024/04/22 09:32:15;;;;;;;8.98;5.60;;;12.20;1.00;;;;;;7376906;19;20022;-64
2024/04/22 09:34:43;;;;;;;3.40;1.88;;;12.90;1.00;;;;;;7378126;19;20519;-63
2024/04/22 09:37:10;;;;;;;10.15;7.93;;;13.10;1.00;;;;;;7377288;19;20018;-63
2024/04/22 09:39:37;;;;;;;9.77;8.15;;;13.50;1.00;;;;;;7378794;19;20447;-64
2024/04/22 09:42:05;;;;;;;4.57;2.95;;;13.40;1.00;;;;;;7374090;19;20529;-64
2024/04/22 09:44:32;;;;;;;7.78;5.63;;;12.90;1.00;;;;;;7376033;19;20021;-63
2024/04/22 09:46:59;;;;;;;7.10;4.93;;;12.70;1.00;;;;;;7375903;19;20014;-63
2024/04/22 09:49:27;;;;;;;2.38;1.75;;;12.30;1.00;;;;;;7376755;19;20018;-62
2024/04/22 09:51:56;;;;;;;5.15;3.35;;;12.10;1.00;;;;;;7376851;19;20383;-63
2024/04/22 09:54:23;;;;;;;9.35;4.75;;;12.60;1.00;;;;;;7376381;19;20014;-63
2024/04/22 09:56:51;;;;;;;7.47;4.13;;;13.00;1.00;;;;;;7373539;19;20024;-62
2024/04/22 09:59:19;;;;;;;4.50;2.63;;;12.90;1.00;;;;;;7375503;19;20026;-62
2024/04/22 10:01:46;;;;;;;8.02;6.22;;;12.50;1.00;;;;;;7375147;19;20113;-63
2024/04/22 10:04:13;;;;;;;9.60;7.05;;;12.80;1.00;;;;;;7373511;19;20086;-63
2024/04/22 10:06:39;;;;;;;7.78;5.90;;;13.70;1.00;;;;;;7376372;19;20045;-63
2024/04/22 10:09:07;;;;;;;7.05;4.45;;;13.90;1.00;;;;;;7377350;19;20027;-63
2024/04/22 10:11:33;;;;;;;5.57;3.90;;;13.50;1.00;;;;;;7376150;19;20462;-62
2024/04/22 10:14:16;;;;;;;3.88;1.98;;;13.20;1.00;;;;;;7377433;19;20086;-62
2024/04/22 10:16:59;;;;;;;7.85;3.90;;;12.80;1.00;;;;;;7376266;19;20025;-62
2024/04/22 10:19:29;;;;;;;5.88;3.83;;;12.50;1.00;;;;;;7374688;19;20019;-64
2024/04/22 10:22:03;;;;;;;5.55;3.03;;;12.20;1.00;;;;;;7375179;19;20081;-64
2024/04/22 10:24:40;;;;;;;2.88;1.95;;;11.70;1.00;;;;;;7375616;19;20014;-63
2024/04/22 10:27:07;;;;;;;6.35;3.22;;;11.30;1.00;;;;;;7373443;19;20018;-61
2024/04/22 10:29:34;;;;;;;3.80;1.80;;;11.60;1.00;;;;;;7376453;19;20046;-63
2024/04/22 10:32:00;;;;;;;11.45;8.95;;;11.50;1.00;;;;;;7375182;19;20026;-63
2024/04/22 10:34:28;;;;;;;12.13;8.18;;;11.60;1.00;;;;;;7375786;19;20010;-63
2024/04/22 10:36:55;;;;;;;8.02;4.88;;;11.30;1.00;;;;;;7371673;19;20940;-61
2024/04/22 10:39:21;;;;;;;9.25;4.20;;;11.20;1.00;;;;;;7377203;19;20599;-63
2024/04/22 10:41:47;;;;;;;5.88;2.72;;;11.10;1.00;;;;;;7375923;19;20018;-60
2024/04/22 10:44:14;;;;;;;8.15;5.60;;;11.40;1.00;;;;;;7373377;19;20031;-62
2024/04/22 10:46:40;;;;;;;8.43;6.15;;;12.20;1.00;;;;;;7376355;19;20385;-61
2024/04/22 10:49:07;;;;;;;6.22;3.22;;;12.20;1.00;;;;;;7374053;19;20022;-63
2024/04/22 10:51:33;;;;;;;5.13;2.92;;;11.80;1.00;;;;;;7373698;19;20030;-64
2024/04/22 10:53:59;;;;;;;9.05;6.55;;;11.70;1.00;;;;;;7374095;19;20434;-60
2024/04/22 10:56:26;;;;;;;6.85;3.63;;;11.50;1.00;;;;;;7373919;19;20018;-64
2024/04/22 10:58:55;;;;;;;4.95;2.60;;;11.10;1.00;;;;;;7372900;19;20029;-60
2024/04/22 11:01:22;;;;;;;5.93;4.03;;;10.90;1.00;;;;;;7374106;19;20026;-63
2024/04/22 11:03:49;;;;;;;10.23;7.18;;;10.90;1.00;;;;;;7373861;19;20014;-63
2024/04/22 11:06:15;;;;;;;10.73;7.40;;;11.30;1.00;;;;;;7374071;19;20022;-62
2024/04/22 11:08:42;;;;;;;3.08;2.17;;;11.40;1.00;;;;;;7372353;19;20018;-62
2024/04/22 11:11:12;;;;;;;3.35;2.03;;;11.70;1.00;;;;;;7376325;19;20447;-64
2024/04/22 11:13:40;;;;;;;4.35;2.85;;;11.60;1.00;;;;;;7374785;19;20114;-62
2024/04/22 11:16:08;;;;;;;5.78;2.83;;;11.80;1.00;;;;;;7372650;19;20022;-62
2024/04/22 11:18:35;;;;;;;4.05;2.00;;;12.50;1.00;;;;;;7369254;19;20045;-63
2024/04/22 11:21:01;;;;;;;7.10;4.28;;;12.80;1.00;;;;;;7369299;19;20018;-64
2024/04/22 11:23:27;;;;;;;19.83;13.63;;;12.60;1.00;;;;;;7373790;19;20052;-64
2024/04/22 11:25:54;;;;;;;4.80;2.55;;;13.00;1.00;;;;;;7373902;19;20528;-63
2024/04/22 11:28:21;;;;;;;4.15;2.17;;;13.50;1.00;;;;;;7373582;19;20022;-61
2024/04/22 11:30:47;;;;;;;4.97;3.05;;;13.60;1.00;;;;;;7370912;19;20150;-62
2024/04/22 11:33:14;;;;;;;17.65;12.70;;;14.60;1.00;;;;;;7374644;19;20014;-63
2024/04/22 11:35:41;;;;;;;5.35;2.47;;;15.10;1.00;;;;;;7374759;19;20018;-64
2024/04/22 11:38:17;;;;;;;13.57;10.55;;;15.50;1.00;;;;;;7373834;19;20848;-64
2024/04/22 11:40:47;;;;;;;7.75;4.97;;;16.00;1.00;;;;;;7375193;19;20388;-63
2024/04/22 11:43:13;;;;;;;5.50;3.35;;;16.00;1.00;;;;;;7371611;19;20387;-62
2024/04/22 11:45:40;;;;;;;8.88;6.15;;;15.80;1.00;;;;;;7373822;19;20015;-63
2024/04/22 11:48:07;;;;;;;11.23;8.85;;;15.20;1.00;;;;;;7372979;19;20022;-62
2024/04/22 11:50:34;;;;;;;7.65;5.13;;;14.00;1.00;;;;;;7371720;19;20022;-64
2024/04/22 11:53:01;;;;;;;5.25;1.98;;;13.70;1.00;;;;;;7372402;19;20017;-64
2024/04/22 11:55:27;;;;;;;9.82;7.07;;;14.20;1.00;;;;;;7371406;19;20039;-63
2024/04/22 11:57:53;;;;;;;14.18;9.48;;;15.00;1.00;;;;;;7371457;19;20074;-66
2024/04/22 12:00:19;;;;;;;11.32;8.07;;;15.90;1.00;;;;;;7374051;19;20014;-63
2024/04/22 12:02:46;;;;;;;9.63;6.57;;;16.10;1.00;;;;;;7372207;19;20510;-63
2024/04/22 12:05:15;;;;;;;10.30;6.88;;;16.50;1.00;;;;;;7373882;19;20026;-63
2024/04/22 12:07:43;;;;;;;2.05;0.90;;;16.90;1.00;;;;;;7372917;19;20023;-63
2024/04/22 12:10:10;;;;;;;4.13;2.28;;;16.50;1.00;;;;;;7370399;19;20498;-63
2024/04/22 12:12:37;;;;;;;10.10;7.38;;;16.90;1.00;;;;;;7365075;19;20117;-63
2024/04/22 12:15:03;;;;;;;8.65;3.10;;;17.30;1.00;;;;;;7364908;19;20022;-63
2024/04/22 12:17:29;;;;;;;7.60;5.38;;;17.50;1.00;;;;;;7365200;19;20011;-63
2024/04/22 12:19:56;;;;;;;8.10;5.82;;;17.50;1.00;;;;;;7364050;19;20646;-63
2024/04/22 12:22:22;;;;;;;5.72;2.58;;;17.30;1.00;;;;;;7370293;19;20014;-63
2024/04/22 12:24:48;;;;;;;5.80;3.53;;;17.80;1.00;;;;;;7372772;19;20022;-62
2024/04/22 12:27:15;;;;;;;4.53;2.92;;;18.20;1.00;;;;;;7369750;19;20027;-62
2024/04/22 12:29:41;;;;;;;3.55;2.25;;;18.70;1.00;;;;;;7371654;19;20604;-63
2024/04/22 12:32:07;;;;;;;4.63;2.63;;;18.30;1.00;;;;;;7376079;19;20033;-62
2024/04/22 12:34:33;;;;;;;8.07;5.78;;;17.10;1.00;;;;;;7377678;19;20356;-62
2024/04/22 12:36:59;;;;;;;6.82;3.75;;;15.70;1.00;;;;;;7381852;19;20022;-62
2024/04/22 12:39:26;;;;;;;3.00;1.67;;;14.90;1.00;;;;;;7376407;19;20029;-62
2024/04/22 12:41:52;;;;;;;3.47;1.35;;;14.80;1.00;;;;;;7376145;19;20035;-62
2024/04/22 12:44:19;;;;;;;3.88;2.63;;;15.90;1.00;;;;;;7376944;19;20424;-62
2024/04/22 12:52:17;;;;;;;4.43;2.58;;;14.30;1.00;;;;;;7379131;19;20014;-63
2024/04/22 12:54:43;;;;;;;8.88;7.03;;;14.70;1.00;;;;;;7379735;19;20025;-63
2024/04/22 12:57:12;;;;;;;4.85;3.28;;;15.20;1.00;;;;;;7379357;19;20045;-63
2024/04/22 12:59:39;;;;;;;12.02;9.35;;;16.30;1.00;;;;;;7376504;19;20019;-63
2024/04/22 13:02:12;;;;;;;11.95;9.52;;;17.40;1.00;;;;;;7376181;19;20021;-63
2024/04/22 13:04:39;;;;;;;6.28;2.40;;;17.70;1.00;;;;;;7377224;19;20007;-62
2024/04/22 13:07:05;;;;;;;9.82;6.63;;;18.00;1.00;;;;;;7374415;19;20038;-63
2024/04/22 13:09:31;;;;;;;6.20;3.13;;;18.20;1.00;;;;;;7375331;19;20186;-63